createdAt,value
2018-09-11T00:01:34.308Z,7.50
2018-09-11T00:04:03.231Z,7.20
2018-09-11T00:06:32.619Z,7.10
2018-09-11T00:09:01.596Z,7.10
2018-09-11T00:11:30.597Z,7.33
2018-09-11T00:13:59.631Z,7.27
2018-09-11T00:16:29.002Z,7.10
2018-09-11T00:18:58.354Z,7.10
2018-09-11T00:21:27.599Z,7.30
2018-09-11T00:23:56.848Z,7.17
2018-09-11T00:26:26.187Z,7.20
2018-09-11T00:28:55.650Z,6.90
2018-09-11T00:31:24.719Z,7.50
2018-09-11T00:33:54.059Z,7.07
2018-09-11T00:36:23.203Z,6.83
2018-09-11T00:38:52.484Z,7.50
2018-09-11T00:41:21.631Z,6.60
2018-09-11T00:43:50.755Z,7.40
2018-09-11T00:46:20.032Z,6.73
2018-09-11T00:48:49.178Z,7.20
2018-09-11T00:51:18.475Z,7.33
2018-09-11T00:53:47.538Z,7.23
2018-09-11T00:56:16.715Z,7.23
2018-09-11T00:58:45.965Z,6.93
2018-09-11T01:01:15.247Z,7.17
2018-09-11T01:03:44.715Z,7.20
2018-09-11T01:06:14.367Z,7.67
2018-09-11T01:08:43.697Z,7.03
2018-09-11T01:11:12.929Z,7.07
2018-09-11T01:13:41.888Z,7.33
2018-09-11T01:16:11.275Z,7.17
2018-09-11T01:18:40.457Z,7.53
2018-09-11T01:21:09.742Z,6.70
2018-09-11T01:23:39.001Z,6.70
2018-09-11T01:26:07.953Z,7.73
2018-09-11T01:28:37.197Z,7.07
2018-09-11T01:31:06.548Z,7.30
2018-09-11T01:33:35.792Z,7.10
2018-09-11T01:36:04.856Z,7.57
2018-09-11T01:38:34.265Z,7.47
2018-09-11T01:41:03.595Z,7.50
2018-09-11T01:43:32.799Z,7.47
2018-09-11T01:46:02.060Z,6.93
2018-09-11T01:48:31.332Z,7.07
2018-09-11T01:51:00.624Z,7.20
2018-09-11T01:53:29.554Z,7.43
2018-09-11T01:55:58.834Z,7.27
2018-09-11T01:58:28.243Z,7.33
2018-09-11T02:00:57.327Z,8.07
2018-09-11T02:03:26.663Z,7.23
2018-09-11T02:05:56.005Z,7.80
2018-09-11T02:08:25.255Z,7.63
2018-09-11T02:10:54.611Z,7.73
2018-09-11T02:13:23.881Z,7.37
2018-09-11T02:15:53.063Z,7.80
2018-09-11T02:18:22.394Z,7.67
2018-09-11T02:20:51.872Z,7.37
2018-09-11T02:23:21.308Z,7.13
2018-09-11T02:25:50.560Z,8.27
2018-09-11T02:28:19.904Z,7.13
2018-09-11T02:30:49.260Z,7.00
2018-09-11T02:33:18.463Z,7.23
2018-09-11T02:35:47.781Z,7.57
2018-09-11T02:38:17.072Z,7.87
2018-09-11T02:40:46.248Z,7.33
2018-09-11T02:43:15.577Z,7.60
2018-09-11T02:45:44.758Z,7.00
2018-09-11T02:48:14.107Z,7.70
2018-09-11T02:50:43.330Z,7.20
2018-09-11T02:53:12.284Z,7.17
2018-09-11T02:55:41.296Z,7.60
2018-09-11T02:58:10.484Z,7.63
2018-09-11T03:00:39.495Z,7.40
2018-09-11T03:03:08.862Z,7.30
2018-09-11T03:05:38.128Z,6.97
2018-09-11T03:08:07.410Z,7.13
2018-09-11T03:10:36.429Z,7.53
2018-09-11T03:13:05.359Z,7.63
2018-09-11T03:15:34.560Z,7.37
2018-09-11T03:18:03.784Z,7.30
2018-09-11T03:20:33.143Z,7.50
2018-09-11T03:23:02.382Z,7.77
2018-09-11T03:25:31.604Z,8.17
2018-09-11T03:28:00.629Z,7.07
2018-09-11T03:30:30.237Z,7.70
2018-09-11T03:32:59.239Z,7.23
2018-09-11T03:35:28.490Z,7.60
2018-09-11T03:37:57.688Z,7.30
2018-09-11T03:40:27.160Z,7.60
2018-09-11T03:42:56.525Z,7.93
2018-09-11T03:45:25.640Z,7.17
2018-09-11T03:47:54.865Z,7.90
2018-09-11T03:50:24.342Z,7.57
2018-09-11T03:52:53.649Z,7.30
2018-09-11T03:55:22.608Z,7.20
2018-09-11T03:57:51.969Z,7.60
2018-09-11T04:00:21.167Z,7.97
2018-09-11T04:02:50.439Z,7.20
2018-09-11T04:05:19.802Z,7.60
2018-09-11T04:07:49.264Z,7.47
2018-09-11T04:10:18.712Z,7.20
2018-09-11T04:12:48.170Z,7.43
2018-09-11T04:15:17.255Z,7.77
2018-09-11T04:17:46.311Z,7.40
2018-09-11T04:20:15.655Z,7.30
2018-09-11T04:22:45.053Z,7.17
2018-09-11T04:25:14.392Z,7.43
2018-09-11T04:27:43.664Z,7.47
2018-09-11T04:30:13.046Z,6.90
2018-09-11T04:32:41.944Z,7.50
2018-09-11T04:35:11.075Z,7.67
2018-09-11T04:37:40.100Z,7.27
2018-09-11T04:40:09.540Z,6.97
2018-09-11T04:42:38.885Z,7.53
2018-09-11T04:45:08.248Z,7.33
2018-09-11T04:47:37.487Z,7.43
2018-09-11T04:50:06.777Z,7.23
2018-09-11T04:52:35.824Z,7.80
2018-09-11T04:55:04.978Z,7.17
2018-09-11T04:57:34.256Z,7.20
2018-09-11T05:00:03.410Z,7.10
2018-09-11T05:02:32.647Z,7.30
2018-09-11T05:05:01.843Z,7.30
2018-09-11T05:07:31.137Z,7.17
2018-09-11T05:10:00.301Z,7.30
2018-09-11T05:12:29.487Z,7.63
2018-09-11T05:14:58.667Z,7.47
2018-09-11T05:17:27.943Z,6.77
2018-09-11T05:19:57.056Z,7.67
2018-09-11T05:22:26.280Z,7.33
2018-09-11T05:24:55.484Z,7.33
2018-09-11T05:27:24.668Z,7.50
2018-09-11T05:29:53.815Z,7.67
2018-09-11T05:32:22.808Z,7.00
2018-09-11T05:34:52.003Z,7.97
2018-09-11T05:37:21.156Z,7.27
2018-09-11T05:39:50.351Z,7.50
2018-09-11T05:42:19.458Z,6.93
2018-09-11T05:44:48.641Z,7.13
2018-09-11T05:47:17.553Z,7.10
2018-09-11T05:49:46.580Z,7.37
2018-09-11T05:52:15.777Z,6.87
2018-09-11T05:54:44.704Z,6.63
2018-09-11T05:57:13.608Z,6.77
2018-09-11T05:59:42.867Z,6.70
2018-09-11T06:02:11.815Z,7.37
2018-09-11T06:04:40.849Z,6.67
2018-09-11T06:07:10.084Z,6.70
2018-09-11T06:09:39.248Z,7.00
2018-09-11T06:12:08.499Z,6.83
2018-09-11T06:14:37.653Z,6.70
2018-09-11T06:17:07.247Z,6.77
2018-09-11T06:19:36.464Z,6.47
2018-09-11T06:22:05.463Z,7.10
2018-09-11T06:24:34.533Z,6.10
2018-09-11T06:27:03.903Z,6.57
2018-09-11T06:29:33.089Z,6.30
2018-09-11T06:32:02.244Z,6.37
2018-09-11T06:34:31.493Z,6.93
2018-09-11T06:37:00.652Z,6.53
2018-09-11T06:39:29.885Z,6.33
2018-09-11T06:41:58.951Z,6.90
2018-09-11T06:44:28.248Z,6.60
2018-09-11T06:46:57.525Z,6.70
2018-09-11T06:49:26.485Z,6.30
2018-09-11T06:51:55.583Z,6.53
2018-09-11T06:54:24.859Z,7.13
2018-09-11T06:56:53.682Z,6.63
2018-09-11T06:59:23.056Z,6.73
2018-09-11T07:01:52.342Z,6.70
2018-09-11T07:04:21.416Z,6.60
2018-09-11T07:06:50.606Z,6.20
2018-09-11T07:09:19.834Z,6.70
2018-09-11T07:11:48.887Z,7.17
2018-09-11T07:14:18.080Z,6.10
2018-09-11T07:16:47.324Z,6.77
2018-09-11T07:19:16.409Z,6.73
2018-09-11T07:21:45.715Z,6.37
2018-09-11T07:24:14.820Z,6.23
2018-09-11T07:26:44.167Z,6.87
2018-09-11T07:29:13.644Z,6.27
2018-09-11T07:31:42.920Z,6.70
2018-09-11T07:34:12.123Z,6.23
2018-09-11T07:36:41.300Z,6.10
2018-09-11T07:39:10.435Z,6.10
2018-09-11T07:41:39.250Z,6.63
2018-09-11T07:44:08.591Z,5.60
2018-09-11T07:46:37.749Z,6.20
2018-09-11T07:49:07.187Z,6.00
2018-09-11T07:51:36.339Z,5.50
2018-09-11T07:54:05.238Z,5.93
2018-09-11T07:56:34.452Z,5.40
2018-09-11T07:59:03.700Z,5.20
2018-09-11T08:01:32.761Z,5.70
2018-09-11T08:04:02.191Z,5.53
2018-09-11T08:06:31.824Z,5.73
2018-09-11T08:09:00.814Z,5.77
2018-09-11T08:11:30.321Z,5.33
2018-09-11T08:13:59.144Z,5.67
2018-09-11T08:16:28.408Z,6.10
2018-09-11T08:18:57.601Z,6.30
2018-09-11T08:21:27.276Z,5.80
2018-09-11T08:23:56.266Z,5.90
2018-09-11T08:26:25.935Z,5.67
2018-09-11T08:28:55.673Z,5.87
2018-09-11T08:31:25.231Z,5.70
2018-09-11T08:33:54.568Z,5.10
2018-09-11T08:36:23.776Z,5.53
2018-09-11T08:38:53.092Z,5.37
2018-09-11T08:41:22.627Z,5.60
2018-09-11T08:43:51.950Z,5.60
2018-09-11T08:46:21.319Z,5.83
2018-09-11T08:48:50.291Z,5.50
2018-09-11T08:51:19.621Z,5.93
2018-09-11T08:53:49.028Z,6.20
2018-09-11T08:56:18.278Z,5.97
2018-09-11T08:58:47.440Z,5.63
2018-09-11T09:01:16.786Z,4.83
2018-09-11T09:03:46.027Z,5.37
2018-09-11T09:06:15.233Z,5.20
2018-09-11T09:08:44.403Z,5.47
2018-09-11T09:11:13.620Z,5.73
2018-09-11T09:13:42.947Z,5.20
2018-09-11T09:16:12.361Z,5.93
2018-09-11T09:18:41.698Z,5.70
2018-09-11T09:21:11.076Z,4.93
2018-09-11T09:23:41.190Z,5.53
2018-09-11T09:26:10.071Z,4.97
2018-09-11T09:28:39.580Z,4.90
2018-09-11T09:31:09.024Z,4.67
2018-09-11T09:33:38.374Z,5.27
2018-09-11T09:36:07.479Z,5.13
2018-09-11T09:38:36.831Z,5.50
2018-09-11T09:41:05.791Z,5.23
2018-09-11T09:43:34.998Z,5.03
2018-09-11T09:46:04.219Z,4.73
2018-09-11T09:48:33.580Z,4.83
2018-09-11T09:51:03.161Z,4.70
2018-09-11T09:53:32.663Z,4.67
2018-09-11T09:56:01.624Z,4.50
2018-09-11T09:58:30.860Z,4.30
2018-09-11T10:01:05.027Z,4.90
2018-09-11T10:03:34.439Z,4.80
2018-09-11T10:06:04.076Z,4.63
2018-09-11T10:08:33.038Z,4.80
2018-09-11T10:11:02.320Z,4.60
2018-09-11T10:13:31.489Z,4.63
2018-09-11T10:16:00.736Z,4.37
2018-09-11T10:18:29.947Z,4.97
2018-09-11T10:20:59.191Z,4.42
2018-09-11T10:23:28.371Z,4.70
2018-09-11T10:25:57.620Z,4.90
2018-09-11T10:28:27.082Z,5.20
2018-09-11T10:30:56.275Z,5.00
2018-09-11T10:33:25.674Z,4.80
2018-09-11T10:35:54.993Z,5.13
2018-09-11T10:38:24.200Z,5.13
2018-09-11T10:40:53.342Z,4.47
2018-09-11T10:43:22.744Z,4.20
2018-09-11T10:45:52.060Z,4.62
2018-09-11T10:48:21.329Z,4.87
2018-09-11T10:50:50.711Z,4.58
2018-09-11T10:53:19.764Z,5.42
2018-09-11T10:55:49.175Z,5.05
2018-09-11T10:58:18.148Z,5.28
2018-09-11T11:00:47.488Z,5.12
2018-09-11T11:03:16.923Z,5.10
2018-09-11T11:05:46.067Z,4.70
2018-09-11T11:08:15.112Z,5.08
2018-09-11T11:10:44.551Z,4.65
2018-09-11T11:13:13.878Z,5.37
2018-09-11T11:15:43.214Z,5.10
2018-09-11T11:18:12.569Z,5.17
2018-09-11T11:20:41.768Z,4.95
2018-09-11T11:23:11.068Z,4.87
2018-09-11T11:25:40.298Z,5.30
2018-09-11T11:28:09.637Z,4.87
2018-09-11T11:30:38.950Z,5.08
2018-09-11T11:33:07.957Z,5.42
2018-09-11T11:35:37.247Z,4.58
2018-09-11T11:38:06.709Z,5.05
2018-09-11T11:40:35.989Z,4.70
2018-09-11T11:43:05.361Z,4.87
2018-09-11T11:45:34.567Z,5.28
2018-09-11T11:48:03.841Z,4.80
2018-09-11T11:50:33.247Z,5.30
2018-09-11T11:53:02.513Z,4.87
2018-09-11T11:55:32.116Z,4.75
2018-09-11T11:58:01.421Z,4.53
2018-09-11T12:00:30.614Z,4.50
2018-09-11T12:02:59.877Z,5.12
2018-09-11T12:05:29.211Z,4.62
2018-09-11T12:07:58.443Z,4.62
2018-09-11T12:10:27.740Z,4.30
2018-09-11T12:12:56.732Z,4.42
2018-09-11T12:15:25.935Z,4.25
2018-09-11T12:17:55.388Z,4.47
2018-09-11T12:20:24.688Z,4.20
2018-09-11T12:22:54.099Z,4.45
2018-09-11T12:25:23.413Z,4.65
2018-09-11T12:27:52.750Z,4.35
2018-09-11T12:30:21.787Z,4.55
2018-09-11T12:32:51.140Z,4.47
2018-09-11T12:35:20.323Z,4.63
2018-09-11T12:37:49.781Z,4.67
2018-09-11T12:40:19.068Z,4.70
2018-09-11T12:42:48.349Z,4.55
2018-09-11T12:45:17.460Z,4.75
2018-09-11T12:47:47.066Z,4.40
2018-09-11T12:50:15.966Z,4.20
2018-09-11T12:52:45.374Z,4.12
2018-09-11T12:55:14.275Z,4.30
2018-09-11T12:57:43.712Z,4.22
2018-09-11T13:00:13.062Z,3.93
2018-09-11T13:02:42.167Z,4.63
2018-09-11T13:05:11.255Z,4.20
2018-09-11T13:07:40.640Z,4.10
2018-09-11T13:10:09.750Z,4.20
2018-09-11T13:12:38.761Z,4.70
2018-09-11T13:15:08.007Z,3.90
2018-09-11T13:17:37.361Z,4.17
2018-09-11T13:20:06.630Z,3.93
2018-09-11T13:22:36.133Z,3.80
2018-09-11T13:25:05.107Z,3.80
2018-09-11T13:27:34.543Z,3.80
2018-09-11T13:30:03.958Z,3.87
2018-09-11T13:32:33.329Z,4.03
2018-09-11T13:35:02.335Z,4.13
2018-09-11T13:37:31.612Z,4.10
2018-09-11T13:40:00.724Z,3.60
2018-09-11T13:42:30.031Z,4.07
2018-09-11T13:44:59.250Z,3.80
2018-09-11T13:47:28.440Z,3.90
2018-09-11T13:49:57.356Z,3.90
2018-09-11T13:52:26.531Z,4.33
2018-09-11T13:54:55.700Z,4.13
2018-09-11T13:57:24.956Z,4.30
2018-09-11T13:59:54.261Z,4.20
2018-09-11T14:02:23.852Z,3.97
2018-09-11T14:04:52.974Z,4.13
2018-09-11T14:07:22.468Z,4.03
2018-09-11T14:09:51.616Z,4.50
2018-09-11T14:12:20.702Z,4.10
2018-09-11T14:14:49.749Z,4.37
2018-09-11T14:17:18.844Z,3.90
2018-09-11T14:19:48.075Z,4.63
2018-09-11T14:22:18.386Z,3.83
2018-09-11T14:24:47.516Z,4.57
2018-09-11T14:27:16.629Z,4.60
2018-09-11T14:29:46.039Z,4.10
2018-09-11T14:32:15.052Z,4.07
2018-09-11T14:34:44.148Z,4.27
2018-09-11T14:37:13.469Z,4.50
2018-09-11T14:39:42.895Z,3.73
2018-09-11T14:42:12.376Z,3.43
2018-09-11T14:44:41.516Z,4.53
2018-09-11T14:47:10.860Z,4.27
2018-09-11T14:49:40.324Z,4.07
2018-09-11T14:52:09.666Z,4.07
2018-09-11T14:54:38.721Z,4.30
2018-09-11T14:57:08.119Z,4.77
2018-09-11T14:59:37.404Z,4.53
2018-09-11T15:02:06.414Z,4.43
2018-09-11T15:04:35.603Z,4.77
2018-09-11T15:07:04.807Z,4.50
2018-09-11T15:09:34.055Z,4.40
2018-09-11T15:12:03.345Z,4.40
2018-09-11T15:14:32.505Z,4.60
2018-09-11T15:17:01.750Z,4.93
2018-09-11T15:19:31.357Z,4.30
2018-09-11T15:22:00.564Z,4.57
2018-09-11T15:24:29.662Z,4.50
2018-09-11T15:26:59.031Z,4.50
2018-09-11T15:29:28.258Z,4.27
2018-09-11T15:31:57.642Z,4.77
2018-09-11T15:34:26.884Z,4.60
2018-09-11T15:36:56.367Z,4.60
2018-09-11T15:39:25.318Z,4.80
2018-09-11T15:41:54.734Z,3.90
2018-09-11T15:44:23.640Z,4.50
2018-09-11T15:46:53.064Z,4.80
2018-09-11T15:49:22.376Z,4.00
2018-09-11T15:51:51.364Z,4.57
2018-09-11T15:54:20.360Z,4.67
2018-09-11T15:56:49.709Z,4.67
2018-09-11T15:59:19.174Z,4.40
2018-09-11T16:01:48.424Z,4.13
2018-09-11T16:04:17.822Z,4.73
2018-09-11T16:06:47.124Z,4.50
2018-09-11T16:09:16.404Z,5.00
2018-09-11T16:11:45.351Z,4.50
2018-09-11T16:14:14.271Z,4.60
2018-09-11T16:16:43.540Z,4.60
2018-09-11T16:19:12.660Z,4.77
2018-09-11T16:21:41.952Z,4.93
2018-09-11T16:24:11.281Z,4.77
2018-09-11T16:26:40.529Z,4.50
2018-09-11T16:29:09.833Z,4.40
2018-09-11T16:31:39.162Z,4.77
2018-09-11T16:34:08.411Z,4.93
2018-09-11T16:36:37.647Z,4.30
2018-09-11T16:39:09.566Z,4.70
2018-09-11T16:41:39.287Z,4.33
2018-09-11T16:44:08.487Z,4.50
2018-09-11T16:46:38.043Z,4.10
2018-09-11T16:49:07.867Z,3.83
2018-09-11T16:51:37.482Z,3.60
2018-09-11T16:54:06.911Z,4.10
2018-09-11T16:56:36.180Z,4.20
2018-09-11T16:59:05.346Z,4.37
2018-09-11T17:01:34.295Z,4.60
2018-09-11T17:04:03.299Z,4.60
2018-09-11T17:06:32.487Z,4.40
2018-09-11T17:09:01.737Z,4.30
2018-09-11T17:11:30.996Z,4.20
2018-09-11T17:14:00.175Z,4.70
2018-09-11T17:16:29.065Z,4.20
2018-09-11T17:18:58.329Z,4.30
2018-09-11T17:21:27.560Z,4.53
2018-09-11T17:23:56.915Z,4.20
2018-09-11T17:26:26.063Z,4.10
2018-09-11T17:28:55.517Z,3.67
2018-09-11T17:31:24.916Z,4.07
2018-09-11T17:33:54.171Z,3.87
2018-09-11T17:36:23.484Z,4.00
2018-09-11T17:38:52.419Z,4.17
2018-09-11T17:41:21.343Z,4.10
2018-09-11T17:43:50.468Z,3.83
2018-09-11T17:46:20.584Z,3.90
2018-09-11T17:48:49.874Z,4.07
2018-09-11T17:51:19.276Z,4.10
2018-09-11T17:53:48.661Z,3.83
2018-09-11T17:56:17.768Z,3.73
2018-09-11T17:58:48.256Z,4.17
2018-09-11T18:01:17.589Z,3.97
2018-09-11T18:03:46.629Z,4.40
2018-09-11T18:06:15.863Z,4.33
2018-09-11T18:08:45.090Z,4.60
2018-09-11T18:11:15.297Z,4.33
2018-09-11T18:13:44.853Z,4.30
2018-09-11T18:16:16.031Z,4.60
2018-09-11T18:18:46.181Z,4.13
2018-09-11T18:21:17.387Z,4.30
2018-09-11T18:23:48.056Z,4.30
2018-09-11T18:26:17.488Z,4.07
2018-09-11T18:28:47.024Z,4.47
2018-09-11T18:31:18.639Z,4.40
2018-09-11T18:33:48.210Z,5.17
2018-09-11T18:36:19.082Z,4.37
2018-09-11T18:38:49.636Z,4.87
2018-09-11T18:41:20.376Z,4.67
2018-09-11T18:43:50.470Z,4.33
2018-09-11T18:46:20.138Z,4.67
2018-09-11T18:48:50.241Z,4.80
2018-09-11T18:51:19.742Z,4.50
2018-09-11T18:53:49.992Z,4.27
2018-09-11T18:56:20.315Z,4.90
2018-09-11T18:58:50.523Z,4.70
2018-09-11T19:01:20.778Z,5.00
2018-09-11T19:03:51.704Z,5.30
2018-09-11T19:06:24.278Z,4.70
2018-09-11T19:08:53.692Z,4.77
2018-09-11T19:11:23.640Z,5.10
2018-09-11T19:13:53.255Z,4.70
2018-09-11T19:16:22.367Z,4.70
2018-09-11T19:18:51.371Z,4.80
2018-09-11T19:21:20.512Z,5.10
2018-09-11T19:23:49.777Z,4.93
2018-09-11T19:26:19.545Z,4.83
2018-09-11T19:28:48.876Z,4.73
2018-09-11T19:31:18.063Z,4.83
2018-09-11T19:33:47.091Z,5.43
2018-09-11T19:36:17.878Z,5.10
2018-09-11T19:38:47.181Z,4.90
2018-09-11T19:41:16.108Z,5.03
2018-09-11T19:43:45.356Z,5.37
2018-09-11T19:46:14.813Z,5.23
2018-09-11T19:48:44.152Z,6.00
2018-09-11T19:51:13.509Z,5.53
2018-09-11T19:53:42.717Z,5.70
2018-09-11T19:56:12.099Z,5.07
2018-09-11T19:58:41.429Z,5.27
2018-09-11T20:01:10.470Z,5.57
2018-09-11T20:03:39.459Z,5.60
2018-09-11T20:06:09.599Z,5.70
2018-09-11T20:08:38.705Z,5.47
2018-09-11T20:11:08.071Z,5.20
2018-09-11T20:13:37.259Z,5.67
2018-09-11T20:16:06.795Z,5.50
2018-09-11T20:18:36.085Z,5.40
2018-09-11T20:21:05.310Z,5.87
2018-09-11T20:23:34.430Z,5.87
2018-09-11T20:26:03.600Z,5.83
2018-09-11T20:28:32.903Z,5.23
2018-09-11T20:31:02.282Z,5.60
2018-09-11T20:33:31.569Z,5.80
2018-09-11T20:36:00.756Z,6.47
2018-09-11T20:38:29.921Z,5.90
2018-09-11T20:40:58.959Z,5.50
2018-09-11T20:43:28.151Z,5.37
2018-09-11T20:45:57.364Z,5.37
2018-09-11T20:48:26.611Z,5.23
2018-09-11T20:50:55.927Z,5.87
2018-09-11T20:53:25.283Z,5.10
2018-09-11T20:55:54.720Z,5.37
2018-09-11T20:58:24.002Z,5.53
2018-09-11T21:00:53.499Z,4.93
2018-09-11T21:03:22.589Z,5.20
2018-09-11T21:05:51.915Z,4.90
2018-09-11T21:08:21.154Z,5.50
2018-09-11T21:10:50.075Z,5.53
2018-09-11T21:13:19.456Z,5.30
2018-09-11T21:15:48.742Z,5.23
2018-09-11T21:18:18.053Z,5.43
2018-09-11T21:20:47.404Z,5.07
2018-09-11T21:23:16.362Z,4.90
2018-09-11T21:25:45.593Z,5.40
2018-09-11T21:28:14.994Z,5.37
2018-09-11T21:30:44.168Z,5.23
2018-09-11T21:33:13.497Z,5.40
2018-09-11T21:35:42.806Z,5.37
2018-09-11T21:38:12.088Z,4.93
2018-09-11T21:40:41.412Z,5.27
2018-09-11T21:43:10.473Z,5.30
2018-09-11T21:45:39.832Z,5.13
2018-09-11T21:48:09.209Z,5.07
2018-09-11T21:50:38.547Z,4.97
2018-09-11T21:53:07.892Z,5.03
2018-09-11T21:55:37.061Z,4.90
2018-09-11T21:58:06.418Z,5.10
2018-09-11T22:00:39.612Z,4.80
2018-09-11T22:03:08.987Z,5.30
2018-09-11T22:05:38.294Z,4.83
2018-09-11T22:08:07.601Z,4.83
2018-09-11T22:10:36.932Z,5.00
2018-09-11T22:13:06.015Z,5.23
2018-09-11T22:15:35.303Z,5.40
2018-09-11T22:18:04.528Z,4.83
2018-09-11T22:20:33.562Z,4.93
2018-09-11T22:23:02.799Z,5.23
2018-09-11T22:25:32.187Z,4.87
2018-09-11T22:28:01.556Z,4.97
2018-09-11T22:30:30.947Z,5.27
2018-09-11T22:33:00.107Z,5.00
2018-09-11T22:35:29.231Z,4.93
2018-09-11T22:37:58.316Z,4.80
2018-09-11T22:40:27.686Z,5.47
2018-09-11T22:42:56.937Z,4.87
2018-09-11T22:45:26.336Z,4.93
2018-09-11T22:47:55.524Z,5.00
2018-09-11T22:50:24.491Z,5.23
2018-09-11T22:52:53.669Z,5.60
2018-09-11T22:55:22.919Z,4.93
2018-09-11T22:57:52.155Z,4.97
2018-09-11T23:00:21.528Z,4.90
2018-09-11T23:02:50.912Z,5.07
2018-09-11T23:05:20.172Z,4.80
2018-09-11T23:07:49.355Z,5.17
2018-09-11T23:10:18.312Z,4.70
2018-09-11T23:12:47.565Z,4.53
2018-09-11T23:15:16.848Z,5.07
2018-09-11T23:17:46.185Z,5.77
2018-09-11T23:20:15.343Z,4.90
2018-09-11T23:22:44.548Z,5.00
2018-09-11T23:25:14.054Z,4.70
2018-09-11T23:27:42.987Z,5.03
2018-09-11T23:30:12.124Z,5.33
2018-09-11T23:32:41.360Z,5.07
2018-09-11T23:35:10.725Z,4.47
2018-09-11T23:37:40.079Z,5.37
2018-09-11T23:40:09.471Z,5.47
2018-09-11T23:42:38.688Z,5.27
2018-09-11T23:45:07.636Z,5.77
2018-09-11T23:47:36.608Z,5.17
2018-09-11T23:50:05.693Z,5.23
2018-09-11T23:52:34.960Z,5.50
2018-09-11T23:55:04.220Z,5.27
2018-09-11T23:57:33.385Z,5.33
